Terminal Aerodrome Forecast
Issued by NWS

Home | Current Version | Previous Version | Text Only | Print | Product List | Glossary On
Versions: 1 2 3 4 5 6 7 8 9 10 11 12 13 14 15 16 17
000
FTUS43 KSGF 040900 AAA
TAFJLN
TAF AMD
KJLN 040958Z 0410/0506 06005KT 5SM BR OVC030
      TEMPO 0412/0414 SCT030
     FM041400 10006KT P6SM FEW050
     FM050000 13005KT P6SM SKC=

USA.gov is the U.S. government's official web portal to all federal, state and local government web resources and services.